Time;durP1;ratioP1;P1;durP2;ratioP2;P2;SDS_P1;SDS_P2;PMS_P1;PMS_P2;Temp;Humidity;BMP_temperature;BMP_pressure;BME280_temperature;BME280_humidity;BME280_pressure;Samples;Min_cycle;Max_cycle;Signal;HPM_P1;HPM_P2
2023/02/22 00:00:52;;;;;;;;;38.67;36.67;;;;;13.23;100.00;100629.84;5028218;28;45559;-82
2023/02/22 00:03:31;;;;;;;;;38.33;33.00;;;;;13.25;100.00;100625.41;5044264;28;45421;-81
2023/02/22 00:06:04;;;;;;;;;40.67;36.00;;;;;13.30;100.00;100612.97;5044841;28;44985;-83
2023/02/22 00:08:33;;;;;;;;;43.67;37.67;;;;;13.30;100.00;100607.63;5027760;28;44922;-81
2023/02/22 00:11:08;;;;;;;;;39.33;36.00;;;;;13.40;100.00;100609.41;5044235;28;45412;-82
2023/02/22 00:13:34;;;;;;;;;45.33;36.67;;;;;13.39;100.00;100609.41;5045664;28;45404;-81
2023/02/22 00:16:00;;;;;;;;;40.67;36.00;;;;;13.39;100.00;100596.94;5026615;28;45375;-81
2023/02/22 00:18:27;;;;;;;;;40.67;36.00;;;;;13.44;100.00;100599.63;5023742;28;45510;-81
2023/02/22 00:20:58;;;;;;;;;45.00;38.67;;;;;13.33;100.00;100572.00;5043688;28;45639;-81
2023/02/22 00:23:25;;;;;;;;;45.00;35.67;;;;;13.29;100.00;100579.16;5024425;28;46938;-82
2023/02/22 00:25:50;;;;;;;;;41.00;37.00;;;;;13.33;100.00;100586.28;5045117;28;45643;-81
2023/02/22 00:28:19;;;;;;;;;42.00;35.33;;;;;13.33;100.00;100569.31;5043415;28;45449;-81
2023/02/22 00:30:47;;;;;;;;;47.00;39.33;;;;;13.37;100.00;100582.72;5044713;28;45395;-82
2023/02/22 00:33:14;;;;;;;;;45.33;38.00;;;;;13.41;100.00;100588.91;5041638;28;45328;-81
2023/02/22 00:35:44;;;;;;;;;42.00;37.00;;;;;13.37;100.00;100581.78;5021606;28;45655;-82
2023/02/22 00:38:11;;;;;;;;;41.67;36.67;;;;;13.31;100.00;100569.34;5021637;28;45400;-82
2023/02/22 00:40:37;;;;;;;;;39.67;36.33;;;;;13.35;100.00;100573.81;5039453;28;45425;-82
2023/02/22 00:43:04;;;;;;;;;43.67;37.00;;;;;13.42;100.00;100580.03;5046276;28;46533;-82
2023/02/22 00:45:32;;;;;;;;;42.67;36.00;;;;;13.36;100.00;100575.56;5024258;28;45485;-82
2023/02/22 00:47:59;;;;;;;;;35.00;34.00;;;;;13.27;100.00;100567.53;5023616;28;45674;-81
2023/02/22 00:50:27;;;;;;;;;36.00;33.00;;;;;13.28;100.00;100561.28;5040573;28;45465;-81
2023/02/22 00:52:53;;;;;;;;;41.00;36.33;;;;;13.26;100.00;100567.53;5022643;28;47832;-82
2023/02/22 00:55:26;;;;;;;;;39.33;33.00;;;;;13.23;100.00;100563.09;5039318;28;45509;-82
2023/02/22 00:57:55;;;;;;;;;42.67;37.00;;;;;13.23;100.00;100567.50;5039182;28;45412;-82
2023/02/22 01:00:28;;;;;;;;;50.33;38.67;;;;;13.17;100.00;100571.09;5040443;28;45461;-82
2023/02/22 01:02:55;;;;;;;;;35.33;32.00;;;;;13.15;100.00;100570.22;5040850;28;45561;-82
2023/02/22 01:05:26;;;;;;;;;47.67;39.33;;;;;13.16;100.00;100558.63;5044274;28;45501;-81
2023/02/22 01:07:52;;;;;;;;;45.67;37.00;;;;;13.11;100.00;100563.97;5044058;28;45364;-82
2023/02/22 01:10:20;;;;;;;;;42.00;37.67;;;;;13.14;100.00;100557.72;5022963;28;45639;-83
2023/02/22 01:12:47;;;;;;;;;44.00;38.00;;;;;13.09;100.00;100555.06;5040738;28;45544;-82
2023/02/22 01:15:14;;;;;;;;;40.33;36.00;;;;;13.09;100.00;100552.41;5044410;28;45461;-82
2023/02/22 01:17:40;;;;;;;;;42.00;36.33;;;;;13.02;100.00;100546.13;5025627;28;44870;-81
2023/02/22 01:20:11;;;;;;;;;42.67;37.00;;;;;13.01;100.00;100539.03;5023603;28;45355;-81
2023/02/22 01:22:42;;;;;;;;;45.33;37.67;;;;;13.09;100.00;100552.41;5040343;28;45442;-82
2023/02/22 01:25:14;;;;;;;;;36.67;34.00;;;;;13.12;100.00;100554.16;5039033;28;45373;-83
2023/02/22 01:27:40;;;;;;;;;46.67;39.33;;;;;13.11;100.00;100553.28;5020492;28;45458;-82
2023/02/22 01:30:07;;;;;;;;;41.67;37.00;;;;;13.10;100.00;100551.50;5024464;28;45375;-82
2023/02/22 01:32:37;;;;;;;;;37.33;34.33;;;;;13.04;100.00;100535.47;5043282;28;45658;-82
2023/02/22 01:35:08;;;;;;;;;40.67;35.00;;;;;13.12;100.00;100543.50;5023962;28;45592;-82
2023/02/22 01:37:36;;;;;;;;;39.00;34.33;;;;;13.12;100.00;100543.50;5044877;28;45753;-82
2023/02/22 01:40:06;;;;;;;;;39.00;35.33;;;;;12.99;100.00;100529.25;5023223;28;45627;-83
2023/02/22 01:42:33;;;;;;;;;42.00;35.33;;;;;13.06;100.00;100547.03;5038930;28;47640;-83
2023/02/22 01:45:29;;;;;;;;;39.67;36.33;;;;;13.09;100.00;100543.47;5039954;28;45821;-82
2023/02/22 01:48:03;;;;;;;;;42.67;36.00;;;;;13.07;100.00;100535.47;5039888;28;45322;-81
2023/02/22 01:50:32;;;;;;;;;47.33;38.00;;;;;13.06;100.00;100541.69;5041129;28;45477;-81
2023/02/22 01:53:01;;;;;;;;;42.67;36.33;;;;;12.99;100.00;100543.47;5039032;28;46765;-80
2023/02/22 01:55:27;;;;;;;;;37.00;34.33;;;;;13.02;100.00;100554.16;5037766;28;45481;-81
2023/02/22 01:57:53;;;;;;;;;45.33;39.33;;;;;12.95;100.00;100533.69;5038685;28;45432;-82
2023/02/22 02:00:20;;;;;;;;;43.33;36.00;;;;;12.99;100.00;100548.81;5043952;28;45455;-82
2023/02/22 02:03:01;;;;;;;;;37.67;34.00;;;;;13.01;100.00;100536.38;5042510;28;47003;-82
2023/02/22 02:05:31;;;;;;;;;42.33;36.33;;;;;13.05;100.00;100550.63;5025743;28;44866;-82
2023/02/22 02:08:02;;;;;;;;;34.33;29.00;;;;;13.00;100.00;100534.56;5020749;28;45750;-81
2023/02/22 02:10:28;;;;;;;;;38.00;35.33;;;;;13.01;100.00;100541.72;5022390;28;45410;-81
2023/02/22 02:12:55;;;;;;;;;38.67;31.67;;;;;13.03;100.00;100536.38;5020832;28;47695;-81
2023/02/22 02:15:24;;;;;;;;;47.33;36.33;;;;;12.98;100.00;100524.78;5025639;28;45639;-82
2023/02/22 02:17:52;;;;;;;;;40.67;37.33;;;;;12.97;100.00;100526.56;5020044;28;45540;-82
2023/02/22 02:20:46;;;;;;;;;40.00;36.67;;;;;12.97;100.00;100518.56;5020589;28;45769;-83
2023/02/22 02:23:33;;;;;;;;;37.67;36.00;;;;;13.01;100.00;100525.69;5018042;28;45485;-82
2023/02/22 02:26:41;;;;;;;;;46.67;39.00;;;;;12.98;100.00;100516.78;5017662;28;45758;-83
2023/02/22 02:29:22;;;;;;;;;42.33;37.00;;;;;12.94;100.00;100518.56;5018474;28;45356;-81
2023/02/22 02:32:14;;;;;;;;;39.67;36.33;;;;;12.91;100.00;100518.56;5021538;28;45416;-82
2023/02/22 02:35:11;;;;;;;;;40.33;36.33;;;;;12.90;100.00;100516.75;5017509;28;47049;-82
2023/02/22 02:37:42;;;;;;;;;40.00;36.00;;;;;12.87;100.00;100515.91;5017467;28;45388;-82
2023/02/22 02:40:40;;;;;;;;;38.33;35.33;;;;;12.83;100.00;100515.00;5018372;28;45482;-82
2023/02/22 02:43:41;;;;;;;;;43.00;36.33;;;;;12.84;100.00;100508.75;5002040;28;45300;-83
2023/02/22 02:46:31;;;;;;;;;41.67;36.67;;;;;12.82;100.00;100502.53;5019336;28;45346;-82
2023/02/22 02:49:09;;;;;;;;;35.33;33.67;;;;;12.77;100.00;100505.19;5022699;28;46587;-82
2023/02/22 02:51:44;;;;;;;;;40.67;36.33;;;;;12.77;100.00;100509.66;5020415;28;45460;-81
2023/02/22 02:54:11;;;;;;;;;35.00;33.33;;;;;12.71;100.00;100501.66;5022673;28;45364;-81
2023/02/22 02:56:37;;;;;;;;;36.67;35.00;;;;;12.65;100.00;100496.31;5023190;28;45492;-81
2023/02/22 02:59:32;;;;;;;;;40.67;36.33;;;;;12.70;100.00;100500.72;5022053;28;45648;-81
2023/02/22 03:02:43;;;;;;;;;32.67;32.67;;;;;12.70;100.00;100503.41;5020120;28;45756;-83
2023/02/22 03:05:20;;;;;;;;;41.50;36.00;;;;;12.59;100.00;100498.06;4927020;28;45018;-81
2023/02/22 03:07:48;;;;;;;;;34.33;32.33;;;;;12.61;100.00;100498.06;4944305;28;47565;-82
2023/02/22 03:10:32;;;;;;;;;40.00;36.00;;;;;12.57;100.00;100498.94;4922842;28;45558;-81
2023/02/22 03:13:27;;;;;;;;;44.33;36.00;;;;;12.55;100.00;100495.38;4940967;28;44918;-81
2023/02/22 03:16:18;;;;;;;;;46.33;37.00;;;;;12.54;100.00;100491.84;4942787;28;45301;-83
2023/02/22 03:19:05;;;;;;;;;43.00;39.00;;;;;12.46;100.00;100482.00;4940927;28;46854;-81
2023/02/22 03:22:01;;;;;;;;;36.67;35.67;;;;;12.49;100.00;100495.38;4942900;28;45482;-83
2023/02/22 03:24:31;;;;;;;;;40.00;36.00;;;;;12.40;100.00;100494.47;4926878;28;45392;-82
2023/02/22 03:27:08;;;;;;;;;43.33;36.67;;;;;12.39;100.00;100492.66;4941831;28;45677;-81
2023/02/22 03:29:41;;;;;;;;;41.33;36.67;;;;;12.36;100.00;100481.09;4942193;28;47092;-82
2023/02/22 03:32:13;;;;;;;;;41.67;36.00;;;;;12.31;100.00;100477.53;4943511;28;45390;-82
2023/02/22 03:34:55;;;;;;;;;38.00;32.67;;;;;12.33;100.00;100471.31;4925403;28;45951;-82
2023/02/22 03:37:32;;;;;;;;;36.33;32.67;;;;;12.31;100.00;100472.22;4925143;28;45401;-81
2023/02/22 03:39:59;;;;;;;;;37.33;34.00;;;;;12.28;100.00;100473.09;4918659;28;47417;-80
2023/02/22 03:42:37;;;;;;;;;38.00;34.00;;;;;12.28;100.00;100473.09;4971211;28;45406;-81
2023/02/22 03:45:08;;;;;;;;;31.00;30.67;;;;;12.25;100.00;100466.88;5000642;28;45533;-81
2023/02/22 03:47:42;;;;;;;;;34.00;32.33;;;;;12.24;100.00;100473.97;5002810;28;45523;-81
2023/02/22 03:50:28;;;;;;;;;43.67;37.00;;;;;12.26;100.00;100473.97;5016304;28;47140;-82
2023/02/22 03:52:55;;;;;;;;;33.67;33.67;;;;;12.13;100.00;100465.94;4999713;28;45545;-81
2023/02/22 03:55:22;;;;;;;;;43.33;36.00;;;;;12.10;100.00;100468.59;5000798;28;45549;-81
2023/02/22 03:57:52;;;;;;;;;42.67;37.00;;;;;12.17;100.00;100477.50;4999445;28;45368;-81
2023/02/22 04:00:22;;;;;;;;;32.67;32.67;;;;;12.11;100.00;100465.03;5002670;28;46598;-82
2023/02/22 04:02:50;;;;;;;;;32.33;29.33;;;;;12.12;100.00;100469.50;5002286;28;45387;-81
2023/02/22 04:05:16;;;;;;;;;31.67;30.33;;;;;12.06;100.00;100466.81;5001111;28;45493;-82
2023/02/22 04:07:42;;;;;;;;;36.67;32.67;;;;;11.98;100.00;100447.25;5018549;28;45476;-83
2023/02/22 04:10:08;;;;;;;;;44.33;39.00;;;;;12.04;100.00;100463.25;5002819;28;47669;-82
2023/02/22 04:12:35;;;;;;;;;34.33;34.33;;;;;12.05;100.00;100459.69;5000115;28;45824;-81
2023/02/22 04:15:02;;;;;;;;;36.33;35.33;;;;;12.07;100.00;100462.38;4999486;28;45555;-82
2023/02/22 04:17:27;;;;;;;;;36.00;32.33;;;;;12.07;100.00;100463.25;5001966;28;45450;-81
2023/02/22 04:19:53;;;;;;;;;36.33;35.33;;;;;12.09;100.00;100465.94;5000987;28;45581;-81
2023/02/22 04:22:19;;;;;;;;;39.33;34.67;;;;;12.12;100.00;100468.59;5000465;28;45440;-82
2023/02/22 04:24:44;;;;;;;;;38.00;35.67;;;;;12.08;100.00;100454.38;5002829;28;44777;-82
2023/02/22 04:27:13;;;;;;;;;43.67;36.67;;;;;12.16;100.00;100463.28;5003252;28;45982;-82
2023/02/22 04:29:38;;;;;;;;;35.67;34.67;;;;;12.24;100.00;100462.41;5005114;28;46931;-82
2023/02/22 04:32:04;;;;;;;;;34.67;32.33;;;;;12.33;100.00;100471.31;5018166;28;45644;-81
2023/02/22 04:34:29;;;;;;;;;40.00;36.33;;;;;12.32;100.00;100463.31;5002575;28;45459;-81
2023/02/22 04:36:55;;;;;;;;;43.67;37.00;;;;;12.39;100.00;100467.78;4998957;28;45490;-81
2023/02/22 04:39:20;;;;;;;;;40.00;37.00;;;;;12.34;100.00;100450.88;5003491;28;47868;-81
2023/02/22 04:41:46;;;;;;;;;44.33;36.67;;;;;12.38;100.00;100472.25;5021133;28;45476;-82
2023/02/22 04:44:12;;;;;;;;;42.33;36.00;;;;;12.39;100.00;100471.34;5022794;28;45507;-82
2023/02/22 04:46:38;;;;;;;;;41.67;36.33;;;;;12.39;100.00;100467.78;5022867;28;45420;-81
2023/02/22 04:49:04;;;;;;;;;46.33;40.00;;;;;12.36;100.00;100473.09;5021111;28;46109;-80
2023/02/22 04:51:29;;;;;;;;;40.00;35.67;;;;;12.28;100.00;100467.78;5020050;28;45459;-82
2023/02/22 04:53:55;;;;;;;;;41.00;37.67;;;;;12.27;100.00;100481.09;5022072;28;45439;-81
2023/02/22 04:56:22;;;;;;;;;39.00;35.00;;;;;12.24;100.00;100473.06;5025783;28;45437;-82
2023/02/22 04:58:48;;;;;;;;;43.33;38.67;;;;;12.22;100.00;100473.09;5028617;28;47199;-82
2023/02/22 05:01:15;;;;;;;;;40.67;36.67;;;;;12.18;100.00;100474.84;5022840;28;45755;-83
2023/02/22 05:03:40;;;;;;;;;44.33;37.67;;;;;12.14;100.00;100474.81;5025059;28;45434;-81
2023/02/22 05:06:06;;;;;;;;;40.00;36.00;;;;;12.09;100.00;100473.91;5024947;28;45637;-81
2023/02/22 05:08:32;;;;;;;;;41.33;35.67;;;;;12.09;100.00;100472.13;5021149;28;45526;-82
2023/02/22 05:10:57;;;;;;;;;43.00;38.00;;;;;12.03;100.00;100466.78;5020681;28;45760;-82
2023/02/22 05:13:23;;;;;;;;;44.33;40.00;;;;;12.08;100.00;100475.72;5019841;28;45473;-82
2023/02/22 05:15:48;;;;;;;;;48.33;41.33;;;;;12.00;100.00;100465.00;5022840;28;45479;-82
2023/02/22 05:18:14;;;;;;;;;42.00;36.67;;;;;12.06;100.00;100472.13;5023237;28;46088;-80
2023/02/22 05:20:40;;;;;;;;;45.00;38.00;;;;;12.02;100.00;100465.03;5024146;28;45279;-81
2023/02/22 05:23:06;;;;;;;;;41.67;38.67;;;;;11.99;100.00;100460.53;5021673;28;45312;-82
2023/02/22 05:25:32;;;;;;;;;48.33;40.00;;;;;12.00;100.00;100473.00;5022982;28;44926;-81
2023/02/22 05:28:11;;;;;;;;;35.67;35.00;;;;;12.08;100.00;100477.47;5042640;28;45563;-81
2023/02/22 05:30:40;;;;;;;;;50.33;43.33;;;;;11.99;100.00;100470.31;5039709;28;45406;-81
2023/02/22 05:33:08;;;;;;;;;39.00;35.33;;;;;12.00;100.00;100465.00;5038246;28;44789;-81
2023/02/22 05:35:35;;;;;;;;;45.67;38.33;;;;;11.92;100.00;100460.53;5039568;28;45647;-81
2023/02/22 05:38:02;;;;;;;;;52.00;40.33;;;;;11.94;100.00;100472.97;5042122;28;46714;-83
2023/02/22 05:40:29;;;;;;;;;49.33;40.00;;;;;11.89;100.00;100463.19;5054350;28;45349;-83
2023/02/22 05:42:55;;;;;;;;;49.00;42.00;;;;;11.87;100.00;100460.47;5064064;28;45364;-81
2023/02/22 05:48:44;;;;;;;;;22.33;21.00;;;;;11.95;100.00;100476.53;5061696;28;44834;-82
2023/02/22 05:51:10;;;;;;;;;49.33;41.00;;;;;11.90;100.00;100470.31;5042728;28;45315;-83
2023/02/22 05:53:36;;;;;;;;;47.67;42.67;;;;;11.89;100.00;100484.50;5061010;28;45436;-82
2023/02/22 05:56:02;;;;;;;;;46.33;41.00;;;;;11.80;100.00;100480.88;5061229;28;45353;-82
2023/02/22 05:58:27;;;;;;;;;51.00;41.00;;;;;11.80;100.00;100486.19;5043092;28;47230;-81
2023/02/22 06:00:54;;;;;;;;;51.67;42.00;;;;;11.83;100.00;100480.00;5044807;28;45399;-82
2023/02/22 06:03:19;;;;;;;;;47.33;41.00;;;;;11.79;100.00;100484.41;5044058;28;45531;-81
2023/02/22 06:05:45;;;;;;;;;51.00;41.33;;;;;11.77;100.00;100479.97;5062919;28;45421;-82
2023/02/22 06:08:11;;;;;;;;;47.67;39.67;;;;;11.82;100.00;100479.09;5045010;28;47050;-82
2023/02/22 06:10:37;;;;;;;;;54.33;44.33;;;;;11.84;100.00;100465.81;5045694;28;45352;-82
2023/02/22 06:13:04;;;;;;;;;51.33;43.00;;;;;11.85;100.00;100475.56;5049212;28;45354;-82
2023/02/22 06:15:30;;;;;;;;;54.33;43.67;;;;;11.82;100.00;100471.13;5064712;28;45379;-81
2023/02/22 06:17:57;;;;;;;;;60.75;49.00;;;;;11.89;100.00;100474.72;5066152;28;45423;-81
2023/02/22 06:20:25;;;;;;;;;58.50;46.25;;;;;11.91;100.00;100472.94;5064585;28;44889;-81
2023/02/22 06:22:55;;;;;;;;;53.67;45.33;;;;;11.86;100.00;100480.03;5044694;28;45457;-82
2023/02/22 06:25:24;;;;;;;;;51.00;43.00;;;;;11.84;100.00;100472.91;5061056;28;45516;-83
2023/02/22 06:27:53;;;;;;;;;58.00;47.25;;;;;11.75;100.00;100477.28;5045668;28;48123;-83
2023/02/22 06:30:22;;;;;;;;;59.00;47.67;;;;;11.85;100.00;100477.34;5044211;28;45664;-83
2023/02/22 06:32:48;;;;;;;;;54.33;45.67;;;;;11.84;100.00;100470.25;5029944;28;44898;-83
2023/02/22 06:35:14;;;;;;;;;54.00;45.67;;;;;11.78;100.00;100471.97;5035789;28;45506;-82
2023/02/22 06:37:39;;;;;;;;;55.75;46.00;;;;;11.74;100.00;100477.28;5037790;28;46740;-84
2023/02/22 06:40:06;;;;;;;;;55.00;44.67;;;;;11.77;100.00;100494.16;5053945;28;45348;-84
2023/02/22 06:42:31;;;;;;;;;54.00;42.67;;;;;11.75;100.00;100487.06;5031091;28;44905;-83
2023/02/22 06:44:57;;;;;;;;;55.67;44.67;;;;;11.72;100.00;100477.28;5037153;28;45459;-83
2023/02/22 06:47:30;;;;;;;;;59.33;48.00;;;;;11.84;100.00;100475.56;5038191;28;47288;-82
2023/02/22 06:49:59;;;;;;;;;55.67;46.33;;;;;11.80;100.00;100475.53;5048067;28;45860;-81
2023/02/22 06:52:25;;;;;;;;;55.67;46.00;;;;;11.80;100.00;100491.53;5039630;28;45353;-82
2023/02/22 06:54:52;;;;;;;;;54.67;45.33;;;;;11.81;100.00;100493.34;5040488;28;45348;-83
2023/02/22 06:57:18;;;;;;;;;57.33;46.33;;;;;11.71;100.00;100490.59;5059813;28;45544;-81
2023/02/22 06:59:47;;;;;;;;;57.00;45.67;;;;;11.57;100.00;100475.44;5031758;28;45606;-82
2023/02/22 07:02:13;;;;;;;;;53.67;44.00;;;;;11.64;100.00;100494.13;5045407;28;45413;-81
2023/02/22 07:04:39;;;;;;;;;57.00;47.33;;;;;11.62;100.00;100502.09;5046319;28;45681;-83
2023/02/22 07:07:05;;;;;;;;;56.33;45.00;;;;;11.57;100.00;100494.09;5056765;28;46287;-83
2023/02/22 07:09:30;;;;;;;;;53.00;44.67;;;;;11.55;100.00;100490.53;5064760;28;45303;-83
2023/02/22 07:11:57;;;;;;;;;60.67;48.33;;;;;11.58;100.00;100493.19;5048360;28;45575;-83
2023/02/22 07:14:23;;;;;;;;;60.00;47.00;;;;;11.57;100.00;100509.16;5035924;28;45645;-82
2023/02/22 07:16:48;;;;;;;;;58.00;46.33;;;;;11.52;100.00;100508.25;5064998;28;45672;-82
2023/02/22 07:19:14;;;;;;;;;56.25;46.00;;;;;11.55;100.00;100516.25;5058102;28;45399;-82
2023/02/22 07:21:39;;;;;;;;;56.50;47.00;;;;;11.52;100.00;100532.22;5040290;28;44790;-82
2023/02/22 07:27:28;;;;;;;;;61.75;48.00;;;;;11.41;100.00;100522.38;5053743;28;45825;-82
2023/02/22 07:29:58;;;;;;;;;58.00;46.00;;;;;11.46;100.00;100537.50;5036909;28;45359;-83
2023/02/22 07:32:24;;;;;;;;;57.75;47.25;;;;;11.40;100.00;100535.69;5027638;28;45418;-82
2023/02/22 07:34:49;;;;;;;;;60.25;48.25;;;;;11.36;100.00;100521.44;5051703;28;45352;-82
2023/02/22 07:37:15;;;;;;;;;60.50;49.75;;;;;11.39;100.00;100528.56;5052979;28;45264;-81
2023/02/22 07:39:42;;;;;;;;;57.25;47.75;;;;;11.40;100.00;100531.22;5026020;28;45588;-80
2023/02/22 07:42:08;;;;;;;;;62.00;51.50;;;;;11.46;100.00;100526.84;5024079;28;45707;-82
2023/02/22 07:44:34;;;;;;;;;62.50;48.25;;;;;11.49;100.00;100546.41;5024819;28;45475;-82
2023/02/22 07:47:01;;;;;;;;;58.50;50.25;;;;;11.54;100.00;100557.09;5026345;28;45450;-83
2023/02/22 07:49:27;;;;;;;;;61.50;50.50;;;;;11.55;100.00;100553.53;5025488;28;45458;-81
2023/02/22 07:58:37;;;;;;;;;65.25;53.75;;;;;11.40;100.00;100533.91;5027715;28;45734;-82
2023/02/22 08:01:04;;;;;;;;;64.25;50.25;;;;;11.43;100.00;100538.34;5029443;28;45396;-81
2023/02/22 08:03:36;;;;;;;;;62.75;51.25;;;;;11.50;100.00;100549.94;5032873;28;45530;-82
2023/02/22 08:06:04;;;;;;;;;61.50;49.25;;;;;11.47;100.00;100560.56;5033320;28;45466;-82
2023/02/22 08:08:30;;;;;;;;;61.50;50.75;;;;;11.40;100.00;100559.63;5034624;28;45594;-81
2023/02/22 08:21:02;;;;;;;;;62.50;49.50;;;;;11.50;100.00;100552.63;5025687;28;45845;-83
2023/02/22 08:23:27;;;;;;;;;64.50;51.25;;;;;11.56;100.00;100565.97;5036016;28;45394;-82
2023/02/22 08:25:54;;;;;;;;;65.00;53.25;;;;;11.64;100.00;100561.59;5024703;28;44751;-83
2023/02/22 08:28:23;;;;;;;;;63.75;52.00;;;;;11.72;100.00;100574.97;5007618;28;45336;-82
2023/02/22 08:30:52;;;;;;;;;68.50;53.25;;;;;11.77;100.00;100568.75;5045623;28;45439;-83
2023/02/22 08:33:19;;;;;;;;;65.50;52.50;;;;;11.81;100.00;100567.03;5021590;28;45276;-81
2023/02/22 08:36:00;;;;;;;;;67.25;54.00;;;;;11.90;100.00;100567.13;5044426;28;45423;-81
2023/02/22 08:39:07;;;;;;;;;68.50;52.00;;;;;12.00;100.00;100562.75;5042121;28;45368;-81
2023/02/22 08:45:16;;;;;;;;;64.25;52.25;;;;;11.91;100.00;100539.56;5036512;28;45601;-82
2023/02/22 08:47:49;;;;;;;;;65.25;52.75;;;;;11.91;100.00;100534.25;5013123;28;46712;-83
2023/02/22 08:50:19;;;;;;;;;64.50;50.25;;;;;12.00;100.00;100554.75;5019254;28;45688;-83
2023/02/22 08:52:49;;;;;;;;;64.00;50.00;;;;;11.92;100.00;100548.47;5022593;28;48125;-83
2023/02/22 08:55:23;;;;;;;;;63.25;50.75;;;;;12.15;100.00;100591.25;5043144;28;45477;-82
2023/02/22 08:57:49;;;;;;;;;68.50;51.50;;;;;11.96;100.00;100576.94;5019090;28;45441;-83
2023/02/22 09:00:17;;;;;;;;;65.75;51.75;;;;;11.99;100.00;100561.81;5021083;28;45557;-82
2023/02/22 09:02:43;;;;;;;;;64.50;53.00;;;;;12.05;100.00;100560.97;5033402;28;45382;-82
2023/02/22 09:05:17;;;;;;;;;67.25;54.50;;;;;12.28;100.00;100579.75;5028965;28;45305;-81
2023/02/22 09:08:29;;;;;;;;;66.50;54.25;;;;;12.45;100.00;100578.94;5040778;28;45918;-83
2023/02/22 09:11:07;;;;;;;;;67.50;53.50;;;;;12.32;100.00;100564.63;5046617;27;44814;-83
2023/02/22 09:13:53;;;;;;;;;68.25;54.50;;;;;12.49;100.00;100570.94;5040887;28;45481;-82
2023/02/22 09:16:25;;;;;;;;;62.25;51.00;;;;;12.37;100.00;100555.78;5033078;28;45500;-83
2023/02/22 09:22:01;;;;;;;;;64.25;50.25;;;;;12.32;100.00;100557.56;4971200;28;45006;-83
2023/02/22 09:24:26;;;;;;;;;67.00;51.75;;;;;12.37;100.00;100560.22;4987421;28;45524;-82
2023/02/22 09:27:11;;;;;;;;;64.75;51.00;;;;;12.38;100.00;100559.34;4984907;28;44863;-84
2023/02/22 09:30:10;;;;;;;;;61.75;51.25;;;;;12.53;100.00;100602.06;4989183;28;45803;-82
2023/02/22 09:32:52;;;;;;;;;63.75;52.50;;;;;12.51;100.00;100582.50;4988453;28;45102;-81
2023/02/22 09:35:25;;;;;;;;;61.00;48.75;;;;;12.60;100.00;100593.22;4980327;28;47020;-82
2023/02/22 09:38:00;;;;;;;;;65.50;51.25;;;;;12.56;100.00;100574.50;4988425;28;45538;-83
2023/02/22 09:40:55;;;;;;;;;68.25;53.25;;;;;12.43;100.00;100546.03;5000559;28;44984;-82
2023/02/22 09:43:48;;;;;;;;;60.00;49.50;;;;;12.59;100.00;100567.41;4990414;28;44952;-83
2023/02/22 09:46:28;;;;;;;;;58.25;47.25;;;;;12.70;100.00;100578.09;5007940;28;45380;-83
2023/02/22 09:49:18;;;;;;;;;65.75;53.00;;;;;12.74;100.00;100573.69;4995416;28;45898;-83
2023/02/22 09:52:07;;;;;;;;;60.75;48.75;;;;;12.74;100.00;100573.69;4987044;28;44890;-84
2023/02/22 09:55:03;;;;;;;;;65.75;51.50;;;;;12.60;100.00;100553.22;5001254;28;46037;-83
2023/02/22 09:57:45;;;;;;;;;68.75;54.50;;;;;12.51;100.00;100537.16;5005360;28;45457;-83
2023/02/22 10:00:32;;;;;;;;;;;;;;;;;;;;;
2023/02/22 10:03:17;;;;;;;;;66.00;53.25;;;;;12.72;100.00;100572.78;5042809;28;67859;-84
2023/02/22 10:06:11;;;;;;;;;62.25;51.00;;;;;12.76;100.00;100582.56;5043917;28;45581;-83
2023/02/22 10:08:38;;;;;;;;;67.50;53.00;;;;;12.52;100.00;100546.97;5038580;28;45588;-82
2023/02/22 10:11:32;;;;;;;;;65.00;50.00;;;;;12.69;100.00;100571.00;5038045;28;45390;-84
2023/02/22 10:14:13;;;;;;;;;66.50;53.00;;;;;12.52;100.00;100557.63;5038681;28;45477;-83
2023/02/22 10:17:16;;;;;;;;;66.25;52.25;;;;;12.56;100.00;100579.84;5041559;28;45276;-84
2023/02/22 10:23:33;;;;;;;;;62.75;49.50;;;;;12.45;100.00;100584.28;5022448;28;45033;-83
2023/02/22 10:26:15;;;;;;;;;61.75;49.50;;;;;12.44;100.00;100579.81;5058765;28;45900;-82
2023/02/22 10:29:08;;;;;;;;;62.50;52.25;;;;;12.31;100.00;100568.22;5032966;28;45650;-83
2023/02/22 10:32:00;;;;;;;;;;;;;;;;;;;;;
2023/02/22 10:34:42;;;;;;;;;63.25;51.50;;;;;12.19;100.00;100580.59;5037712;28;72888;-83
2023/02/22 10:37:34;;;;;;;;;66.00;52.25;;;;;12.33;100.00;100590.44;5046320;28;45931;-83
2023/02/22 10:40:16;;;;;;;;;65.25;52.00;;;;;12.31;100.00;100584.22;5048604;28;45074;-85
2023/02/22 10:46:19;;;;;;;;;;;;;;;;;;;;;
2023/02/22 10:49:00;;;;;;;;;66.75;54.75;;;;;12.33;100.00;100594.00;5063534;28;67965;-82
2023/02/22 10:51:29;;;;;;;;;63.00;50.00;;;;;12.32;100.00;100607.31;5038741;28;44969;-82
2023/02/22 10:54:18;;;;;;;;;60.50;50.50;;;;;12.04;100.00;100553.88;5042369;28;45362;-82
2023/02/22 10:56:54;;;;;;;;;62.50;50.25;;;;;12.10;100.00;100569.91;5065029;28;45528;-82
2023/02/22 11:00:12;;;;;;;;;;;;;;;;;;;;;
2023/02/22 11:02:59;;;;;;;;;67.00;54.25;;;;;11.95;100.00;100565.34;5063609;28;64939;-83
2023/02/22 11:05:40;;;;;;;;;65.75;53.00;;;;;12.15;100.00;100601.91;5063112;28;45961;-82
2023/02/22 11:18:42;;;;;;;;;66.75;53.00;;;;;11.96;100.00;100588.47;5067200;28;45504;-83
2023/02/22 11:22:10;;;;;;;;;67.50;52.25;;;;;12.24;100.00;100603.72;5050388;28;44845;-82
2023/02/22 11:25:00;;;;;;;;;59.00;49.33;;;;;12.37;100.00;100600.22;5012434;28;45221;-83
2023/02/22 11:27:47;;;;;;;;;59.00;46.00;;;;;12.34;100.00;100584.22;5030273;28;44947;-82
2023/02/22 11:31:08;;;;;;;;;57.33;47.00;;;;;12.46;100.00;100600.25;5023828;28;45419;-82
2023/02/22 11:33:54;;;;;;;;;58.00;46.67;;;;;12.55;100.00;100600.31;4986632;28;44915;-82
2023/02/22 11:36:39;;;;;;;;;62.67;48.00;;;;;12.58;100.00;100589.66;4994746;28;45563;-82
2023/02/22 11:39:27;;;;;;;;;60.25;50.00;;;;;12.68;100.00;100598.56;4992529;28;45463;-82
2023/02/22 11:41:56;;;;;;;;;58.50;46.75;;;;;12.68;100.00;100579.88;4985937;28;46927;-83
2023/02/22 11:44:28;;;;;;;;;56.00;45.33;;;;;12.76;100.00;100588.78;4970698;28;45505;-82
2023/02/22 11:47:00;;;;;;;;;56.00;46.75;;;;;12.79;100.00;100588.81;4985367;28;47072;-82
2023/02/22 11:49:46;;;;;;;;;54.67;45.67;;;;;12.80;100.00;100579.94;4986960;28;45507;-82
2023/02/22 11:52:14;;;;;;;;;57.33;47.33;;;;;12.70;100.00;100577.22;4968225;28;46768;-82
2023/02/22 11:55:08;;;;;;;;;55.33;44.67;;;;;12.76;100.00;100577.25;4986710;28;45410;-83
2023/02/22 11:58:33;;;;;;;;;55.67;45.67;;;;;12.84;100.00;100586.16;4968702;28;46196;-78
2023/02/22 12:01:16;;;;;;;;;57.25;46.50;;;;;12.89;100.00;100589.75;4972607;28;45451;-74
2023/02/22 12:04:05;;;;;;;;;55.67;46.00;;;;;12.94;100.00;100581.72;4974214;28;45474;-74
2023/02/22 12:06:46;;;;;;;;;58.00;47.33;;;;;12.92;100.00;100584.38;4963532;28;45401;-75
2023/02/22 12:09:20;;;;;;;;;58.33;48.00;;;;;12.95;100.00;100576.41;5024396;28;44923;-75
2023/02/22 12:11:53;;;;;;;;;53.33;44.00;;;;;12.88;100.00;100577.25;5023038;28;45745;-72
2023/02/22 12:14:52;;;;;;;;;56.50;47.00;;;;;12.99;100.00;100574.63;5023019;28;48209;-76
2023/02/22 12:17:48;;;;;;;;;57.33;46.67;;;;;12.93;100.00;100559.50;4959718;28;45383;-76
2023/02/22 12:20:24;;;;;;;;;60.00;47.75;;;;;13.02;100.00;100570.16;4940165;28;45348;-74
2023/02/22 12:23:01;;;;;;;;;57.67;47.33;;;;;13.04;100.00;100569.28;4957474;28;45377;-76
2023/02/22 12:25:33;;;;;;;;;57.33;45.67;;;;;13.05;100.00;100557.72;4959394;28;45409;-75